createdAt,value
2018-12-27T00:00:06.456Z,37.03
2018-12-27T00:02:40.418Z,37.25
2018-12-27T00:05:15.006Z,33.93
2018-12-27T00:07:46.828Z,30.52
2018-12-27T00:10:20.693Z,31.70
2018-12-27T00:12:56.192Z,32.67
2018-12-27T00:15:30.470Z,42.53
2018-12-27T00:18:02.482Z,34.17
2018-12-27T00:20:42.444Z,35.33
2018-12-27T00:23:21.854Z,32.87
2018-12-27T00:25:57.624Z,35.93
2018-12-27T00:28:31.069Z,39.37
2018-12-27T00:31:04.740Z,31.60
2018-12-27T00:33:38.855Z,32.40
2018-12-27T00:36:12.159Z,34.55
2018-12-27T00:38:47.281Z,31.70
2018-12-27T00:41:19.164Z,31.40
2018-12-27T00:43:54.537Z,30.13
2018-12-27T00:46:27.675Z,29.77
2018-12-27T00:49:01.123Z,28.83
2018-12-27T00:51:35.581Z,24.47
2018-12-27T00:54:10.198Z,26.80
2018-12-27T00:56:45.487Z,24.20
2018-12-27T00:59:19.194Z,21.75
2018-12-27T01:01:51.923Z,22.98
2018-12-27T01:04:25.927Z,21.48
2018-12-27T01:06:59.027Z,24.33
2018-12-27T01:09:33.038Z,22.87
2018-12-27T01:12:10.186Z,24.27
2018-12-27T01:14:44.199Z,22.63
2018-12-27T01:17:17.063Z,22.27
2018-12-27T01:19:49.019Z,23.53
2018-12-27T01:22:24.596Z,20.60
2018-12-27T01:25:00.643Z,20.60
2018-12-27T01:27:35.754Z,22.10
2018-12-27T01:30:09.803Z,23.93
2018-12-27T01:32:45.586Z,20.37
2018-12-27T01:35:19.952Z,19.43
2018-12-27T01:37:54.953Z,25.53
2018-12-27T01:40:27.010Z,26.53
2018-12-27T01:43:01.000Z,25.47
2018-12-27T01:45:34.016Z,22.00
2018-12-27T01:48:07.188Z,22.53
2018-12-27T01:50:41.339Z,25.03
2018-12-27T01:53:13.133Z,20.40
2018-12-27T01:55:47.527Z,20.90
2018-12-27T01:58:19.055Z,19.60
2018-12-27T02:00:51.518Z,22.50
2018-12-27T02:03:26.489Z,23.20
2018-12-27T02:05:57.147Z,20.17
2018-12-27T02:08:31.805Z,22.73
2018-12-27T02:11:04.263Z,22.20
2018-12-27T02:13:39.148Z,21.47
2018-12-27T02:16:12.474Z,25.37
2018-12-27T02:18:48.457Z,21.37
2018-12-27T02:21:20.166Z,22.57
2018-12-27T02:23:54.423Z,21.93
2018-12-27T02:26:25.952Z,24.90
2018-12-27T02:29:01.876Z,21.20
2018-12-27T02:31:34.253Z,24.05
2018-12-27T02:34:06.281Z,22.07
2018-12-27T02:36:39.196Z,23.80
2018-12-27T02:39:12.931Z,23.07
2018-12-27T02:41:44.422Z,27.67
2018-12-27T02:44:18.654Z,27.90
2018-12-27T02:46:52.665Z,20.33
2018-12-27T02:49:26.525Z,24.52
2018-12-27T02:51:58.189Z,28.97
2018-12-27T02:54:35.399Z,25.33
2018-12-27T02:57:10.948Z,28.77
2018-12-27T02:59:42.473Z,23.10
2018-12-27T03:02:14.957Z,25.90
2018-12-27T03:04:48.479Z,29.80
2018-12-27T03:07:21.444Z,24.05
2018-12-27T03:09:53.441Z,26.60
2018-12-27T03:12:26.509Z,27.90
2018-12-27T03:14:59.392Z,32.23
2018-12-27T03:17:33.709Z,27.37
2018-12-27T03:20:07.440Z,28.73
2018-12-27T03:22:40.774Z,24.93
2018-12-27T03:25:12.853Z,24.90
2018-12-27T03:27:47.995Z,27.33
2018-12-27T03:30:19.497Z,28.67
2018-12-27T03:32:52.138Z,25.97
2018-12-27T03:35:27.188Z,23.17
2018-12-27T03:37:58.625Z,27.15
2018-12-27T03:40:32.651Z,27.03
2018-12-27T03:43:04.946Z,28.97
2018-12-27T03:45:37.509Z,26.50
2018-12-27T03:48:12.140Z,23.20
2018-12-27T03:50:44.764Z,26.00
2018-12-27T03:53:18.925Z,28.92
2018-12-27T03:55:52.720Z,27.30
2018-12-27T03:58:25.560Z,29.03
2018-12-27T04:01:02.438Z,25.20
2018-12-27T04:03:35.519Z,29.73
2018-12-27T04:06:12.003Z,25.57
2018-12-27T04:08:47.682Z,28.33
2018-12-27T04:11:22.205Z,27.58
2018-12-27T04:13:53.860Z,24.50
2018-12-27T04:16:27.831Z,28.17
2018-12-27T04:19:00.987Z,34.03
2018-12-27T04:21:34.493Z,26.50
2018-12-27T04:24:07.912Z,29.80
2018-12-27T04:26:41.729Z,30.03
2018-12-27T04:29:13.214Z,40.33
2018-12-27T04:31:49.299Z,27.33
2018-12-27T04:34:21.984Z,32.17
2018-12-27T04:36:55.243Z,33.07
2018-12-27T04:39:29.820Z,28.70
2018-12-27T04:42:04.397Z,30.67
2018-12-27T04:44:37.018Z,34.47
2018-12-27T04:47:10.729Z,28.67
2018-12-27T04:49:42.276Z,26.77
2018-12-27T04:52:16.215Z,31.70
2018-12-27T04:54:50.040Z,32.53
2018-12-27T04:57:21.867Z,32.80
2018-12-27T04:59:54.146Z,36.28
2018-12-27T05:02:27.866Z,36.50
2018-12-27T05:05:01.945Z,34.23
2018-12-27T05:07:35.922Z,33.78
2018-12-27T05:10:09.006Z,34.10
2018-12-27T05:12:42.716Z,37.37
2018-12-27T05:15:15.891Z,33.67
2018-12-27T05:17:48.701Z,43.23
2018-12-27T05:20:20.071Z,35.67
2018-12-27T05:22:54.270Z,36.73
2018-12-27T05:25:27.357Z,37.28
2018-12-27T05:28:00.827Z,38.57
2018-12-27T05:30:34.966Z,35.52
2018-12-27T05:33:08.684Z,38.50
2018-12-27T05:35:41.922Z,38.00
2018-12-27T05:38:13.294Z,34.70
2018-12-27T05:40:45.993Z,37.33
2018-12-27T05:43:19.062Z,32.75
2018-12-27T05:45:50.908Z,43.90
2018-12-27T05:48:26.688Z,39.00
2018-12-27T05:50:58.867Z,39.50
2018-12-27T05:53:32.160Z,37.23
2018-12-27T05:56:06.120Z,37.33
2018-12-27T05:58:38.132Z,38.27
2018-12-27T06:01:11.193Z,36.20
2018-12-27T06:03:45.106Z,41.53
2018-12-27T06:06:19.027Z,33.70
2018-12-27T06:08:52.112Z,32.43
2018-12-27T06:11:25.077Z,30.92
2018-12-27T06:13:59.010Z,36.03
2018-12-27T06:16:33.156Z,33.50
2018-12-27T06:19:07.091Z,34.70
2018-12-27T06:21:40.546Z,36.30
2018-12-27T06:24:12.676Z,32.00
2018-12-27T06:26:44.284Z,43.37
2018-12-27T06:29:16.076Z,36.80
2018-12-27T06:31:47.592Z,42.33
2018-12-27T06:34:19.093Z,38.97
2018-12-27T06:36:53.209Z,41.15
2018-12-27T06:39:26.068Z,36.53
2018-12-27T06:41:59.401Z,40.80
2018-12-27T06:44:31.225Z,41.83
2018-12-27T06:47:05.366Z,45.23
2018-12-27T06:49:39.999Z,50.97
2018-12-27T06:52:14.366Z,45.97
2018-12-27T06:54:48.475Z,50.00
2018-12-27T06:57:20.997Z,42.77
2018-12-27T06:59:54.473Z,43.48
2018-12-27T07:02:28.303Z,46.93
2018-12-27T07:05:01.384Z,41.43
2018-12-27T07:07:35.347Z,44.47
2018-12-27T07:10:08.353Z,44.60
2018-12-27T07:12:40.464Z,41.63
2018-12-27T07:15:14.308Z,47.78
2018-12-27T07:17:45.907Z,43.90
2018-12-27T07:20:19.476Z,41.90
2018-12-27T07:22:51.582Z,41.33
2018-12-27T07:25:25.011Z,43.83
2018-12-27T07:27:58.450Z,49.63
2018-12-27T07:30:34.229Z,47.20
2018-12-27T07:33:10.451Z,43.50
2018-12-27T07:35:42.632Z,45.45
2018-12-27T07:38:16.611Z,41.70
2018-12-27T07:40:48.134Z,37.53
2018-12-27T07:43:20.610Z,45.50
2018-12-27T07:45:56.264Z,42.17
2018-12-27T07:48:30.565Z,41.87
2018-12-27T07:51:01.884Z,40.53
2018-12-27T07:53:35.971Z,44.90
2018-12-27T07:56:09.645Z,51.63
2018-12-27T07:58:42.707Z,47.37
2018-12-27T08:01:15.700Z,46.90
2018-12-27T08:03:47.806Z,41.50
2018-12-27T08:06:20.655Z,46.87
2018-12-27T08:08:52.260Z,54.30
2018-12-27T08:11:25.609Z,38.30
2018-12-27T08:13:59.696Z,44.67
2018-12-27T08:16:39.066Z,42.23
2018-12-27T08:19:10.591Z,141.97
2018-12-27T08:21:43.822Z,51.10
2018-12-27T08:24:15.745Z,43.00
2018-12-27T08:26:49.663Z,48.52
2018-12-27T08:29:25.131Z,45.57
2018-12-27T08:32:00.824Z,45.97
2018-12-27T08:34:42.785Z,42.17
2018-12-27T08:37:21.724Z,43.30
2018-12-27T08:39:53.668Z,42.30
2018-12-27T08:42:28.068Z,47.10
2018-12-27T08:45:00.891Z,53.23
2018-12-27T08:47:35.879Z,48.50
2018-12-27T08:50:08.316Z,52.57
2018-12-27T08:52:41.882Z,47.20
2018-12-27T08:55:13.722Z,46.60
2018-12-27T08:57:46.723Z,43.93
2018-12-27T09:00:19.709Z,49.33
2018-12-27T09:02:51.144Z,43.47
2018-12-27T09:05:25.959Z,43.23
2018-12-27T09:07:59.686Z,38.90
2018-12-27T09:10:32.245Z,39.87
2018-12-27T09:13:05.973Z,38.43
2018-12-27T09:15:41.291Z,34.70
2018-12-27T09:18:16.599Z,39.50
2018-12-27T09:20:51.050Z,36.90
2018-12-27T09:23:26.437Z,46.43
2018-12-27T09:25:58.942Z,35.40
2018-12-27T09:28:33.871Z,34.60
2018-12-27T09:31:10.180Z,36.83
2018-12-27T09:33:45.109Z,40.57
2018-12-27T09:36:19.860Z,39.97
2018-12-27T09:38:52.133Z,39.93
2018-12-27T09:41:29.016Z,37.40
2018-12-27T09:44:01.990Z,39.40
2018-12-27T09:46:33.511Z,36.27
2018-12-27T09:49:07.093Z,37.30
2018-12-27T09:51:40.193Z,35.77
2018-12-27T09:54:12.837Z,38.17
2018-12-27T09:56:45.941Z,39.33
2018-12-27T09:59:19.254Z,34.77
2018-12-27T10:01:52.052Z,35.47
2018-12-27T10:04:27.832Z,42.20
2018-12-27T10:06:59.256Z,37.27
2018-12-27T10:09:32.447Z,33.50
2018-12-27T10:12:04.221Z,34.20
2018-12-27T10:14:38.353Z,40.83
2018-12-27T10:17:11.958Z,41.67
2018-12-27T10:19:46.903Z,43.80
2018-12-27T10:22:19.195Z,42.27
2018-12-27T10:24:56.563Z,37.23
2018-12-27T10:27:30.892Z,39.50
2018-12-27T10:30:03.294Z,36.83
2018-12-27T10:32:36.481Z,31.43
2018-12-27T10:35:10.394Z,34.97
2018-12-27T10:37:43.204Z,32.40
2018-12-27T10:40:17.792Z,32.77
2018-12-27T10:42:50.665Z,34.00
2018-12-27T10:45:25.794Z,34.75
2018-12-27T10:47:58.591Z,38.38
2018-12-27T10:50:31.557Z,33.53
2018-12-27T10:53:05.060Z,40.23
2018-12-27T10:55:39.373Z,38.63
2018-12-27T10:58:12.462Z,37.20
2018-12-27T11:00:45.441Z,36.13
2018-12-27T11:03:19.594Z,33.87
2018-12-27T11:05:55.143Z,32.57
2018-12-27T11:08:31.479Z,37.53
2018-12-27T11:11:03.549Z,33.27
2018-12-27T11:13:37.670Z,37.17
2018-12-27T11:16:10.699Z,38.73
2018-12-27T11:18:45.747Z,41.70
2018-12-27T11:21:32.882Z,62.43
2018-12-27T11:24:04.580Z,45.93
2018-12-27T11:26:37.454Z,41.80
2018-12-27T11:29:12.603Z,32.53
2018-12-27T11:31:45.476Z,34.40
2018-12-27T11:34:19.455Z,32.70
2018-12-27T11:36:52.565Z,35.63
2018-12-27T11:39:26.568Z,34.40
2018-12-27T11:42:00.514Z,34.20
2018-12-27T11:44:33.541Z,32.43
2018-12-27T11:47:04.854Z,31.07
2018-12-27T11:49:37.585Z,36.83
2018-12-27T11:52:11.722Z,27.30
2018-12-27T11:54:45.728Z,36.03
2018-12-27T11:57:17.117Z,34.43
2018-12-27T11:59:50.066Z,29.53
2018-12-27T12:02:31.331Z,31.90
2018-12-27T12:05:02.655Z,24.00
2018-12-27T12:07:44.219Z,26.87
2018-12-27T12:10:19.246Z,27.90
2018-12-27T12:12:56.852Z,31.77
2018-12-27T12:15:31.517Z,25.13
2018-12-27T12:18:06.746Z,26.17
2018-12-27T12:20:54.756Z,33.67
2018-12-27T12:23:32.749Z,22.67
2018-12-27T12:26:16.396Z,26.70
2018-12-27T12:28:52.476Z,26.23
2018-12-27T12:31:26.307Z,29.23
2018-12-27T12:34:01.903Z,25.83
2018-12-27T12:36:38.285Z,37.80
2018-12-27T12:39:10.540Z,30.10
2018-12-27T12:41:45.867Z,28.23
2018-12-27T12:44:30.786Z,20.40
2018-12-27T12:47:51.433Z,20.92
2018-12-27T12:50:22.887Z,23.63
2018-12-27T12:52:58.747Z,17.53
2018-12-27T12:55:35.792Z,19.90
2018-12-27T12:58:09.471Z,19.40
2018-12-27T13:00:44.674Z,16.40
2018-12-27T13:03:18.108Z,17.73
2018-12-27T13:05:59.294Z,22.83
2018-12-27T13:08:41.748Z,20.23
2018-12-27T13:14:20.571Z,18.93
2018-12-27T13:16:59.395Z,18.43
2018-12-27T13:19:36.892Z,16.43
2018-12-27T13:22:23.681Z,15.93
2018-12-27T13:25:20.430Z,21.53
2018-12-27T13:28:02.780Z,18.90
2018-12-27T13:30:47.857Z,21.80
2018-12-27T13:33:29.655Z,21.70
2018-12-27T13:36:17.573Z,23.40
2018-12-27T13:38:51.578Z,26.07
2018-12-27T13:41:28.204Z,22.87
2018-12-27T13:44:00.084Z,23.47
2018-12-27T13:46:35.757Z,27.23
2018-12-27T13:49:16.123Z,28.92
2018-12-27T13:51:48.108Z,23.87
2018-12-27T13:54:22.146Z,21.87
2018-12-27T13:56:55.371Z,22.53
2018-12-27T13:59:31.343Z,24.77
2018-12-27T14:02:05.248Z,25.07
2018-12-27T14:04:39.567Z,22.50
2018-12-27T14:07:12.463Z,23.60
2018-12-27T14:09:46.201Z,24.40
2018-12-27T14:12:17.667Z,19.07
2018-12-27T14:14:50.348Z,17.43
2018-12-27T14:17:24.191Z,21.60
2018-12-27T14:19:56.334Z,21.10
2018-12-27T14:22:28.206Z,19.27
2018-12-27T14:25:02.409Z,19.80
2018-12-27T14:27:37.861Z,21.43
2018-12-27T14:30:09.747Z,18.83
2018-12-27T14:32:43.407Z,21.77
2018-12-27T14:35:16.353Z,16.93
2018-12-27T14:37:48.614Z,20.00
2018-12-27T14:40:21.883Z,20.17
2018-12-27T14:42:55.314Z,23.20
2018-12-27T14:45:31.075Z,26.33
2018-12-27T14:48:03.279Z,25.03
2018-12-27T14:50:34.641Z,22.73
2018-12-27T14:53:07.458Z,23.57
2018-12-27T14:55:42.023Z,29.43
2018-12-27T14:58:13.426Z,22.50
2018-12-27T15:00:47.247Z,30.67
2018-12-27T15:03:21.418Z,23.87
2018-12-27T15:05:55.522Z,25.30
2018-12-27T15:08:29.296Z,29.33
2018-12-27T15:11:07.493Z,24.40
2018-12-27T15:13:40.662Z,26.73
2018-12-27T15:16:13.264Z,27.47
2018-12-27T15:18:49.622Z,28.57
2018-12-27T15:21:24.638Z,33.33
2018-12-27T15:24:00.856Z,35.10
2018-12-27T15:26:34.103Z,44.40
2018-12-27T15:29:07.790Z,44.13
2018-12-27T15:31:53.792Z,51.20
2018-12-27T15:34:32.052Z,52.00
2018-12-27T15:37:07.567Z,54.70
2018-12-27T15:39:40.688Z,65.10
2018-12-27T15:42:13.215Z,49.00
2018-12-27T15:44:47.068Z,53.37
2018-12-27T15:47:30.973Z,50.10
2018-12-27T15:50:08.362Z,46.23
2018-12-27T15:52:45.927Z,58.93
2018-12-27T15:55:22.870Z,50.00
2018-12-27T15:58:11.306Z,44.07
2018-12-27T16:01:00.546Z,42.53
2018-12-27T16:03:36.734Z,44.63
2018-12-27T16:06:11.059Z,49.60
2018-12-27T16:08:43.794Z,45.60
2018-12-27T16:11:21.422Z,50.85
2018-12-27T16:14:00.860Z,46.00
2018-12-27T16:16:32.555Z,58.67
2018-12-27T16:19:07.850Z,59.83
2018-12-27T16:21:40.975Z,58.37
2018-12-27T16:24:13.593Z,45.77
2018-12-27T16:26:46.979Z,53.77
2018-12-27T16:29:20.156Z,49.90
2018-12-27T16:31:56.553Z,54.43
2018-12-27T16:34:37.721Z,59.58
2018-12-27T16:37:12.719Z,64.67
2018-12-27T16:39:57.995Z,62.00
2018-12-27T16:42:35.669Z,66.87
2018-12-27T16:45:18.002Z,62.20
2018-12-27T16:48:00.721Z,65.07
2018-12-27T16:50:39.826Z,66.33
2018-12-27T16:53:24.891Z,79.30
2018-12-27T16:56:09.045Z,74.73
2018-12-27T16:58:48.455Z,85.33
2018-12-27T17:01:33.560Z,69.67
2018-12-27T17:04:24.881Z,86.70
2018-12-27T17:07:18.512Z,66.90
2018-12-27T17:10:00.938Z,78.90
2018-12-27T17:12:57.712Z,69.57
2018-12-27T17:15:40.743Z,69.30
2018-12-27T17:18:22.162Z,71.33
2018-12-27T17:20:56.903Z,70.43
2018-12-27T17:23:49.065Z,68.17
2018-12-27T17:26:23.596Z,70.30
2018-12-27T17:29:02.749Z,78.05
2018-12-27T17:31:54.033Z,75.32
2018-12-27T17:34:46.171Z,74.43
2018-12-27T17:37:40.806Z,71.80
2018-12-27T17:40:18.132Z,69.47
2018-12-27T17:42:56.961Z,70.60
2018-12-27T17:45:36.893Z,71.77
2018-12-27T17:48:17.331Z,74.40
2018-12-27T17:51:00.893Z,75.63
2018-12-27T17:53:41.561Z,71.27
2018-12-27T17:56:19.742Z,74.83
2018-12-27T17:59:23.386Z,70.77
2018-12-27T18:02:05.603Z,68.62
2018-12-27T18:04:54.804Z,84.77
2018-12-27T18:07:47.748Z,74.42
2018-12-27T18:10:54.790Z,71.67
2018-12-27T18:13:46.768Z,75.87
2018-12-27T18:16:24.164Z,68.93
2018-12-27T18:19:10.263Z,66.83
2018-12-27T18:21:44.260Z,62.93
2018-12-27T18:24:24.333Z,66.53
2018-12-27T18:27:25.704Z,60.60
2018-12-27T18:30:07.787Z,73.43
2018-12-27T18:32:57.110Z,66.55
2018-12-27T18:35:35.757Z,65.80
2018-12-27T18:38:34.568Z,59.37
2018-12-27T18:41:24.345Z,72.90
2018-12-27T18:44:12.279Z,69.42
2018-12-27T18:46:55.991Z,67.10
2018-12-27T18:49:57.010Z,64.55
2018-12-27T18:52:34.313Z,60.00
2018-12-27T18:55:08.586Z,63.10
2018-12-27T18:58:25.015Z,58.50
2018-12-27T19:01:08.293Z,60.25
2018-12-27T19:03:47.128Z,62.83
2018-12-27T19:06:28.268Z,58.60
2018-12-27T19:09:08.846Z,61.53
2018-12-27T19:12:41.002Z,61.30
2018-12-27T19:15:36.924Z,58.38
2018-12-27T19:18:31.327Z,67.17
2018-12-27T19:21:59.948Z,58.37
2018-12-27T19:24:35.047Z,61.73
2018-12-27T19:27:16.567Z,56.30
2018-12-27T19:30:11.627Z,54.53
2018-12-27T19:32:48.570Z,52.77
2018-12-27T19:35:49.050Z,58.90
2018-12-27T19:38:30.374Z,62.03
2018-12-27T19:41:03.653Z,65.73
2018-12-27T19:43:39.299Z,64.07
2018-12-27T19:46:19.979Z,69.07
2018-12-27T19:49:04.575Z,58.80
2018-12-27T19:51:40.191Z,68.00
2018-12-27T19:54:21.063Z,60.63
2018-12-27T20:00:14.277Z,63.20
2018-12-27T20:02:55.358Z,62.50
2018-12-27T20:05:44.681Z,57.17
2018-12-27T20:08:36.298Z,68.93
2018-12-27T20:11:17.284Z,73.53
2018-12-27T20:13:51.129Z,60.83
2018-12-27T20:16:30.509Z,56.93
2018-12-27T20:19:02.229Z,61.23
2018-12-27T20:21:35.029Z,55.33
2018-12-27T20:24:15.806Z,66.33
2018-12-27T20:27:19.303Z,64.63
2018-12-27T20:29:52.757Z,53.27
2018-12-27T20:32:26.073Z,69.50
2018-12-27T20:35:00.029Z,67.23
2018-12-27T20:37:33.946Z,65.13
2018-12-27T20:40:07.379Z,64.20
2018-12-27T20:42:41.485Z,73.47
2018-12-27T20:45:15.633Z,62.17
2018-12-27T20:48:27.458Z,55.53
2018-12-27T20:51:12.093Z,64.47
2018-12-27T20:53:49.620Z,64.10
2018-12-27T20:56:39.978Z,64.33
2018-12-27T20:59:22.618Z,64.00
2018-12-27T21:02:16.794Z,61.35
2018-12-27T21:05:00.786Z,66.10
2018-12-27T21:07:34.912Z,67.33
2018-12-27T21:10:11.327Z,61.33
2018-12-27T21:12:55.326Z,66.12
2018-12-27T21:15:38.703Z,71.50
2018-12-27T21:18:15.116Z,64.40
2018-12-27T21:20:47.093Z,68.33
2018-12-27T21:23:19.048Z,70.50
2018-12-27T21:25:54.345Z,68.90
2018-12-27T21:28:28.313Z,65.87
2018-12-27T21:31:03.953Z,68.37
2018-12-27T21:33:47.996Z,61.57
2018-12-27T21:36:22.783Z,54.87
2018-12-27T21:38:55.626Z,59.30
2018-12-27T21:41:30.165Z,56.05
2018-12-27T21:44:03.369Z,52.23
2018-12-27T21:46:38.877Z,54.33
2018-12-27T21:49:11.300Z,56.13
2018-12-27T21:51:44.453Z,52.90
2018-12-27T21:54:28.916Z,57.73
2018-12-27T21:57:00.970Z,57.87
2018-12-27T21:59:41.001Z,52.00
2018-12-27T22:02:18.289Z,47.53
2018-12-27T22:04:51.811Z,46.43
2018-12-27T22:07:35.188Z,49.67
2018-12-27T22:10:11.068Z,51.30
2018-12-27T22:12:46.700Z,45.57
2018-12-27T22:15:25.009Z,51.55
2018-12-27T22:18:08.549Z,47.67
2018-12-27T22:20:58.715Z,54.73
2018-12-27T22:23:39.765Z,48.93
2018-12-27T22:26:21.707Z,51.03
2018-12-27T22:28:56.294Z,46.77
2018-12-27T22:31:39.225Z,51.97
2018-12-27T22:34:36.257Z,50.50
2018-12-27T22:37:24.628Z,49.75
2018-12-27T22:40:07.821Z,41.70
2018-12-27T22:42:44.245Z,40.80
2018-12-27T22:45:22.674Z,44.60
2018-12-27T22:48:14.586Z,45.50
2018-12-27T22:50:49.343Z,51.77
2018-12-27T22:53:27.073Z,55.90
2018-12-27T22:56:05.225Z,50.43
2018-12-27T22:58:40.080Z,54.25
2018-12-27T23:01:17.894Z,53.13
2018-12-27T23:03:57.571Z,54.40
2018-12-27T23:06:32.995Z,59.20
2018-12-27T23:09:11.870Z,52.93
2018-12-27T23:11:52.857Z,64.53
2018-12-27T23:14:33.229Z,52.53
2018-12-27T23:17:09.470Z,44.60
2018-12-27T23:19:47.246Z,48.13
2018-12-27T23:22:23.883Z,38.13
2018-12-27T23:25:02.106Z,39.50
2018-12-27T23:27:35.933Z,37.60
2018-12-27T23:30:23.295Z,41.43
2018-12-27T23:33:04.567Z,35.70
2018-12-27T23:35:49.172Z,40.67
2018-12-27T23:38:25.439Z,39.23
2018-12-27T23:40:57.987Z,40.27
2018-12-27T23:43:30.189Z,33.90
2018-12-27T23:46:03.802Z,38.27
2018-12-27T23:48:37.850Z,36.67
2018-12-27T23:51:12.065Z,38.10
2018-12-27T23:53:46.533Z,36.30
2018-12-27T23:56:23.883Z,40.10
2018-12-27T23:58:59.587Z,35.20
